createdAt,value
2022-11-28T00:00:13.083Z,6.16
2022-11-28T00:01:13.072Z,6.12
2022-11-28T00:02:13.208Z,6.12
2022-11-28T00:03:13.212Z,6.08
2022-11-28T00:04:13.032Z,6.07
2022-11-28T00:05:13.029Z,6.11
2022-11-28T00:06:13.011Z,6.05
2022-11-28T00:07:13.052Z,6.05
2022-11-28T00:08:13.001Z,6.09
2022-11-28T00:09:12.971Z,6.17
2022-11-28T00:10:12.954Z,6.17
2022-11-28T00:11:12.946Z,6.14
2022-11-28T00:12:12.949Z,6.14
2022-11-28T00:13:13.033Z,6.12
2022-11-28T00:14:12.925Z,6.11
2022-11-28T00:15:12.899Z,6.12
2022-11-28T00:16:12.994Z,6.11
2022-11-28T00:17:12.888Z,6.07
2022-11-28T00:18:12.856Z,5.99
2022-11-28T00:19:12.851Z,5.94
2022-11-28T00:20:12.882Z,5.93
2022-11-28T00:21:12.821Z,5.90
2022-11-28T00:22:12.820Z,5.87
2022-11-28T00:23:12.813Z,5.87
2022-11-28T00:24:12.786Z,5.87
2022-11-28T00:25:12.765Z,5.87
2022-11-28T00:26:12.752Z,5.93
2022-11-28T00:27:12.761Z,5.90
2022-11-28T00:28:12.726Z,5.90
2022-11-28T00:29:12.832Z,5.93
2022-11-28T00:30:12.717Z,5.98
2022-11-28T00:31:12.698Z,5.98
2022-11-28T00:32:12.810Z,5.98
2022-11-28T00:33:12.666Z,6.01
2022-11-28T00:34:12.684Z,5.99
2022-11-28T00:35:12.637Z,5.94
2022-11-28T00:36:12.623Z,5.89
2022-11-28T00:37:12.627Z,5.86
2022-11-28T00:38:12.602Z,5.87
2022-11-28T00:39:12.591Z,5.91
2022-11-28T00:40:12.572Z,5.89
2022-11-28T00:41:12.565Z,5.83
2022-11-28T00:42:12.573Z,5.86
2022-11-28T00:43:12.562Z,5.89
2022-11-28T00:44:12.524Z,5.90
2022-11-28T00:45:12.650Z,5.98
2022-11-28T00:46:12.563Z,5.98
2022-11-28T00:47:12.507Z,6.02
2022-11-28T00:48:12.466Z,6.04
2022-11-28T00:49:12.459Z,6.09
2022-11-28T00:50:12.441Z,6.11
2022-11-28T00:51:12.469Z,6.11
2022-11-28T00:52:12.446Z,6.16
2022-11-28T00:53:12.406Z,6.14
2022-11-28T00:54:12.397Z,6.08
2022-11-28T00:55:12.379Z,6.02
2022-11-28T00:56:12.372Z,5.98
2022-11-28T00:57:12.374Z,5.98
2022-11-28T00:58:12.342Z,5.86
2022-11-28T00:59:12.327Z,5.83
2022-11-28T01:00:12.325Z,5.82
2022-11-28T01:01:12.521Z,5.80
2022-11-28T01:02:12.393Z,5.83
2022-11-28T01:03:12.283Z,5.84
2022-11-28T01:04:12.259Z,5.89
2022-11-28T01:05:12.251Z,5.98
2022-11-28T01:06:12.242Z,5.91
2022-11-28T01:07:12.296Z,5.90
2022-11-28T01:08:12.217Z,5.82
2022-11-28T01:09:12.218Z,5.82
2022-11-28T01:10:12.195Z,5.76
2022-11-28T01:11:12.178Z,5.76
2022-11-28T01:12:12.184Z,5.76
2022-11-28T01:13:12.153Z,5.76
2022-11-28T01:14:12.160Z,5.79
2022-11-28T01:15:12.123Z,5.79
2022-11-28T01:16:12.139Z,5.79
2022-11-28T01:17:12.224Z,5.79
2022-11-28T01:18:12.139Z,5.73
2022-11-28T01:19:12.072Z,5.80
2022-11-28T01:20:12.055Z,5.80
2022-11-28T01:21:12.048Z,5.86
2022-11-28T01:22:12.027Z,5.86
2022-11-28T01:23:12.042Z,5.86
2022-11-28T01:24:12.005Z,5.84
2022-11-28T01:25:11.988Z,5.89
2022-11-28T01:26:11.982Z,5.87
2022-11-28T01:27:12.016Z,5.91
2022-11-28T01:28:11.963Z,5.90
2022-11-28T01:29:11.961Z,5.90
2022-11-28T01:30:11.925Z,5.94
2022-11-28T01:31:11.999Z,5.89
2022-11-28T01:32:11.897Z,5.89
2022-11-28T01:33:12.017Z,5.84
2022-11-28T01:34:11.872Z,5.84
2022-11-28T01:35:11.864Z,5.80
2022-11-28T01:36:11.843Z,5.83
2022-11-28T01:37:11.855Z,5.83
2022-11-28T01:38:11.845Z,5.90
2022-11-28T01:39:11.815Z,5.91
2022-11-28T01:40:11.800Z,5.90
2022-11-28T01:41:11.786Z,5.93
2022-11-28T01:42:11.769Z,5.97
2022-11-28T01:43:11.784Z,6.05
2022-11-28T01:44:11.751Z,6.07
2022-11-28T01:45:11.730Z,6.07
2022-11-28T01:46:11.815Z,6.04
2022-11-28T01:47:11.754Z,6.07
2022-11-28T01:48:11.707Z,6.04
2022-11-28T01:49:11.788Z,6.07
2022-11-28T01:50:11.666Z,5.98
2022-11-28T01:51:11.652Z,5.94
2022-11-28T01:52:11.635Z,5.94
2022-11-28T01:53:11.639Z,5.91
2022-11-28T01:54:11.610Z,5.89
2022-11-28T01:55:11.599Z,5.84
2022-11-28T01:56:11.586Z,5.83
2022-11-28T01:57:11.596Z,5.87
2022-11-28T01:58:11.590Z,5.76
2022-11-28T01:59:11.547Z,5.76
2022-11-28T02:00:11.529Z,5.75
2022-11-28T02:01:11.589Z,5.75
2022-11-28T02:02:11.583Z,5.76
2022-11-28T02:03:11.494Z,5.72
2022-11-28T02:04:11.510Z,5.75
2022-11-28T02:05:11.629Z,5.73
2022-11-28T02:06:11.456Z,5.71
2022-11-28T02:07:11.440Z,5.73
2022-11-28T02:08:11.438Z,5.71
2022-11-28T02:09:11.438Z,5.65
2022-11-28T02:10:11.401Z,5.62
2022-11-28T02:11:11.399Z,5.62
2022-11-28T02:12:11.372Z,5.57
2022-11-28T02:13:11.364Z,5.57
2022-11-28T02:14:11.362Z,5.56
2022-11-28T02:15:11.336Z,5.57
2022-11-28T02:16:11.405Z,5.61
2022-11-28T02:17:11.320Z,5.64
2022-11-28T02:18:11.302Z,5.64
2022-11-28T02:19:11.304Z,5.59
2022-11-28T02:20:11.271Z,5.56
2022-11-28T02:21:11.385Z,5.59
2022-11-28T02:22:11.256Z,5.50
2022-11-28T02:23:11.234Z,5.53
2022-11-28T02:24:11.238Z,5.57
2022-11-28T02:25:11.228Z,5.61
2022-11-28T02:26:11.199Z,5.64
2022-11-28T02:27:11.184Z,5.62
2022-11-28T02:28:11.203Z,5.57
2022-11-28T02:29:11.173Z,5.57
2022-11-28T02:30:11.145Z,5.61
2022-11-28T02:31:11.153Z,5.62
2022-11-28T02:32:11.129Z,5.65
2022-11-28T02:33:11.108Z,5.68
2022-11-28T02:34:11.110Z,5.73
2022-11-28T02:35:11.082Z,5.76
2022-11-28T02:36:11.066Z,5.65
2022-11-28T02:37:11.168Z,5.61
2022-11-28T02:38:11.046Z,5.61
2022-11-28T02:39:11.048Z,5.66
2022-11-28T02:40:11.017Z,5.69
2022-11-28T02:41:11.025Z,5.69
2022-11-28T02:42:10.986Z,5.71
2022-11-28T02:43:10.979Z,5.76
2022-11-28T02:44:10.976Z,5.82
2022-11-28T02:45:10.954Z,5.79
2022-11-28T02:46:10.934Z,5.83
2022-11-28T02:47:11.112Z,5.83
2022-11-28T02:48:10.920Z,5.83
2022-11-28T02:49:10.928Z,5.87
2022-11-28T02:50:10.880Z,5.84
2022-11-28T02:51:10.867Z,5.90
2022-11-28T02:52:10.856Z,5.94
2022-11-28T02:53:10.954Z,5.97
2022-11-28T02:54:10.843Z,6.01
2022-11-28T02:55:10.818Z,5.99
2022-11-28T02:56:10.802Z,5.99
2022-11-28T02:57:10.789Z,5.99
2022-11-28T02:58:10.774Z,5.93
2022-11-28T02:59:10.781Z,5.93
2022-11-28T03:00:15.117Z,5.94
2022-11-28T03:01:11.810Z,5.98
2022-11-28T03:02:10.826Z,5.98
2022-11-28T03:03:10.710Z,5.97
2022-11-28T03:04:10.698Z,5.89
2022-11-28T03:05:10.703Z,5.89
2022-11-28T03:06:10.672Z,5.82
2022-11-28T03:07:10.659Z,5.84
2022-11-28T03:08:10.642Z,5.84
2022-11-28T03:09:10.746Z,5.83
2022-11-28T03:10:10.639Z,5.87
2022-11-28T03:11:10.611Z,5.86
2022-11-28T03:12:10.593Z,5.89
2022-11-28T03:13:10.587Z,5.82
2022-11-28T03:14:10.571Z,5.80
2022-11-28T03:15:10.585Z,5.76
2022-11-28T03:16:10.610Z,5.79
2022-11-28T03:17:10.532Z,5.84
2022-11-28T03:18:10.522Z,5.91
2022-11-28T03:19:10.504Z,5.93
2022-11-28T03:20:10.509Z,5.99
2022-11-28T03:21:10.483Z,6.05
2022-11-28T03:22:10.465Z,6.07
2022-11-28T03:23:10.462Z,6.09
2022-11-28T03:24:10.442Z,6.12
2022-11-28T03:25:10.598Z,6.08
2022-11-28T03:26:10.428Z,6.05
2022-11-28T03:27:10.404Z,6.05
2022-11-28T03:28:10.412Z,6.08
2022-11-28T03:29:10.378Z,5.98
2022-11-28T03:30:10.385Z,5.93
2022-11-28T03:31:10.410Z,5.86
2022-11-28T03:32:10.345Z,5.84
2022-11-28T03:33:10.330Z,5.83
2022-11-28T03:34:10.342Z,5.80
2022-11-28T03:35:10.313Z,5.80
2022-11-28T03:36:10.295Z,5.73
2022-11-28T03:37:10.278Z,5.79
2022-11-28T03:38:10.263Z,5.73
2022-11-28T03:39:10.256Z,5.73
2022-11-28T03:40:10.257Z,5.73
2022-11-28T03:41:10.331Z,5.73
2022-11-28T03:42:10.212Z,5.72
2022-11-28T03:43:10.197Z,5.75
2022-11-28T03:44:10.186Z,5.71
2022-11-28T03:45:10.188Z,5.72
2022-11-28T03:46:10.159Z,5.71
2022-11-28T03:47:10.323Z,5.72
2022-11-28T03:48:10.139Z,5.65
2022-11-28T03:49:10.118Z,5.66
2022-11-28T03:50:10.127Z,5.66
2022-11-28T03:51:10.094Z,5.65
2022-11-28T03:52:10.088Z,5.68
2022-11-28T03:53:10.070Z,5.71
2022-11-28T03:54:10.058Z,5.69
2022-11-28T03:55:10.065Z,5.66
2022-11-28T03:56:10.130Z,5.71
2022-11-28T03:57:10.131Z,5.71
2022-11-28T03:58:10.009Z,5.75
2022-11-28T03:59:10.000Z,5.76
2022-11-28T04:00:10.009Z,5.87
2022-11-28T04:01:10.038Z,5.87
2022-11-28T04:02:09.962Z,5.86
2022-11-28T04:03:09.987Z,5.84
2022-11-28T04:04:09.936Z,5.80
2022-11-28T04:05:09.940Z,5.73
2022-11-28T04:06:09.902Z,5.68
2022-11-28T04:07:09.903Z,5.69
2022-11-28T04:08:09.881Z,5.66
2022-11-28T04:09:14.235Z,5.65
2022-11-28T04:10:09.854Z,5.68
2022-11-28T04:11:09.856Z,5.64
2022-11-28T04:12:09.831Z,5.65
2022-11-28T04:13:09.928Z,5.66
2022-11-28T04:14:09.804Z,5.65
2022-11-28T04:15:09.790Z,5.59
2022-11-28T04:16:09.814Z,5.69
2022-11-28T04:17:09.766Z,5.66
2022-11-28T04:18:09.752Z,5.65
2022-11-28T04:19:09.737Z,5.69
2022-11-28T04:20:09.725Z,5.73
2022-11-28T04:21:09.729Z,5.76
2022-11-28T04:22:09.706Z,5.76
2022-11-28T04:23:09.692Z,5.76
2022-11-28T04:24:09.673Z,5.73
2022-11-28T04:25:09.677Z,5.72
2022-11-28T04:26:09.664Z,5.72
2022-11-28T04:27:09.635Z,5.72
2022-11-28T04:28:09.627Z,5.72
2022-11-28T04:29:09.721Z,5.79
2022-11-28T04:30:09.603Z,5.75
2022-11-28T04:31:09.638Z,5.75
2022-11-28T04:32:09.574Z,5.82
2022-11-28T04:33:09.557Z,5.83
2022-11-28T04:34:09.548Z,5.84
2022-11-28T04:35:09.536Z,5.87
2022-11-28T04:36:09.546Z,5.90
2022-11-28T04:37:10.019Z,5.91
2022-11-28T04:38:09.501Z,5.90
2022-11-28T04:39:09.480Z,5.89
2022-11-28T04:40:09.472Z,5.83
2022-11-28T04:41:09.475Z,5.80
2022-11-28T04:42:09.448Z,5.83
2022-11-28T04:43:09.429Z,5.86
2022-11-28T04:44:09.421Z,5.87
2022-11-28T04:45:09.517Z,5.84
2022-11-28T04:46:09.489Z,5.82
2022-11-28T04:47:09.381Z,5.80
2022-11-28T04:48:09.369Z,5.82
2022-11-28T04:49:09.354Z,5.75
2022-11-28T04:50:09.345Z,5.75
2022-11-28T04:51:09.361Z,5.76
2022-11-28T04:52:09.320Z,5.75
2022-11-28T04:53:09.308Z,5.80
2022-11-28T04:54:09.289Z,5.76
2022-11-28T04:55:09.276Z,5.80
2022-11-28T04:56:09.280Z,5.80
2022-11-28T04:57:09.259Z,5.80
2022-11-28T04:58:09.243Z,5.84
2022-11-28T04:59:09.230Z,5.86
2022-11-28T05:00:09.214Z,5.84
2022-11-28T05:01:09.413Z,5.83
2022-11-28T05:02:09.283Z,5.82
2022-11-28T05:03:09.172Z,5.84
2022-11-28T05:04:09.161Z,5.83
2022-11-28T05:05:09.180Z,5.80
2022-11-28T05:06:09.152Z,5.84
2022-11-28T05:07:09.122Z,5.79
2022-11-28T05:08:09.111Z,5.83
2022-11-28T05:09:09.096Z,5.83
2022-11-28T05:10:09.085Z,5.82
2022-11-28T05:11:09.092Z,5.83
2022-11-28T05:12:09.059Z,5.82
2022-11-28T05:13:09.045Z,5.80
2022-11-28T05:14:09.040Z,5.75
2022-11-28T05:15:09.018Z,5.82
2022-11-28T05:16:09.128Z,5.82
2022-11-28T05:17:09.135Z,5.80
2022-11-28T05:18:08.987Z,5.80
2022-11-28T05:19:08.971Z,5.75
2022-11-28T05:20:08.957Z,5.73
2022-11-28T05:21:08.986Z,5.79
2022-11-28T05:22:08.933Z,5.75
2022-11-28T05:23:08.926Z,5.82
2022-11-28T05:24:08.905Z,5.75
2022-11-28T05:25:08.893Z,5.79
2022-11-28T05:26:08.915Z,5.82
2022-11-28T05:27:08.871Z,5.86
2022-11-28T05:28:08.858Z,5.80
2022-11-28T05:29:08.842Z,5.83
2022-11-28T05:30:08.830Z,5.83
2022-11-28T05:31:08.868Z,5.82
2022-11-28T05:32:08.818Z,5.82
2022-11-28T05:33:08.902Z,5.80
2022-11-28T05:34:08.779Z,5.83
2022-11-28T05:35:08.767Z,5.82
2022-11-28T05:36:12.946Z,5.79
2022-11-28T05:37:08.757Z,5.75
2022-11-28T05:38:13.406Z,5.76
2022-11-28T05:39:08.714Z,5.75
2022-11-28T05:40:08.702Z,5.76
2022-11-28T05:41:08.691Z,5.76
2022-11-28T05:42:08.691Z,5.79
2022-11-28T05:43:08.661Z,5.82
2022-11-28T05:44:08.649Z,5.82
2022-11-28T05:45:08.633Z,5.79
2022-11-28T05:46:08.664Z,5.75
2022-11-28T05:47:08.624Z,5.73
2022-11-28T05:48:08.598Z,5.82
2022-11-28T05:49:08.697Z,5.82
2022-11-28T05:50:08.577Z,5.80
2022-11-28T05:51:08.558Z,5.80
2022-11-28T05:52:08.563Z,5.80
2022-11-28T05:53:08.537Z,5.83
2022-11-28T05:54:08.523Z,5.83
2022-11-28T05:55:08.515Z,5.83
2022-11-28T05:56:08.504Z,5.89
2022-11-28T05:57:08.497Z,5.83
2022-11-28T05:58:08.483Z,5.86
2022-11-28T05:59:08.461Z,5.86
2022-11-28T06:00:08.448Z,5.84
2022-11-28T06:01:08.432Z,5.87
2022-11-28T06:02:08.524Z,5.82
2022-11-28T06:03:08.408Z,5.89
2022-11-28T06:04:08.493Z,5.90
2022-11-28T06:05:27.713Z,5.91
2022-11-28T06:06:09.374Z,5.97
2022-11-28T06:07:08.394Z,5.93
2022-11-28T06:08:08.355Z,5.93
2022-11-28T06:09:08.350Z,6.02
2022-11-28T06:10:08.325Z,5.98
2022-11-28T06:11:08.315Z,5.89
2022-11-28T06:12:08.314Z,5.83
2022-11-28T06:13:08.308Z,5.82
2022-11-28T06:14:08.279Z,5.80
2022-11-28T06:15:08.253Z,5.82
2022-11-28T06:16:08.341Z,5.82
2022-11-28T06:17:08.252Z,5.80
2022-11-28T06:18:08.217Z,5.80
2022-11-28T06:19:08.205Z,5.82
2022-11-28T06:20:08.216Z,5.80
2022-11-28T06:21:08.295Z,5.80
2022-11-28T06:22:08.199Z,5.83
2022-11-28T06:23:08.152Z,5.76
2022-11-28T06:24:08.148Z,5.76
2022-11-28T06:25:08.131Z,5.76
2022-11-28T06:26:08.119Z,5.76
2022-11-28T06:27:08.119Z,5.73
2022-11-28T06:28:08.092Z,5.75
2022-11-28T06:29:08.076Z,5.76
2022-11-28T06:30:08.067Z,5.76
2022-11-28T06:31:08.050Z,5.73
2022-11-28T06:32:08.147Z,5.76
2022-11-28T06:33:08.027Z,5.76
2022-11-28T06:34:08.028Z,5.80
2022-11-28T06:35:07.999Z,5.80
2022-11-28T06:36:07.989Z,5.75
2022-11-28T06:37:08.102Z,5.84
2022-11-28T06:38:11.504Z,5.84
2022-11-28T06:39:08.948Z,5.87
2022-11-28T06:40:07.937Z,5.87
2022-11-28T06:41:07.927Z,5.89
2022-11-28T06:42:07.931Z,5.84
2022-11-28T06:43:07.895Z,5.79
2022-11-28T06:44:07.883Z,5.82
2022-11-28T06:45:07.868Z,5.83
2022-11-28T06:46:09.929Z,5.80
2022-11-28T06:47:07.850Z,5.83
2022-11-28T06:48:07.853Z,5.80
2022-11-28T06:49:07.820Z,5.79
2022-11-28T06:50:07.808Z,5.75
2022-11-28T06:51:07.790Z,5.69
2022-11-28T06:52:07.786Z,5.71
2022-11-28T06:53:07.894Z,5.69
2022-11-28T06:54:07.756Z,5.71
2022-11-28T06:55:07.750Z,5.69
2022-11-28T06:56:07.735Z,5.71
2022-11-28T06:57:07.716Z,5.73
2022-11-28T06:58:07.722Z,5.73
2022-11-28T06:59:07.700Z,5.76
2022-11-28T07:00:07.694Z,5.73
2022-11-28T07:01:07.758Z,5.72
2022-11-28T07:02:08.161Z,5.75
2022-11-28T07:03:07.676Z,5.72
2022-11-28T07:04:07.625Z,5.73
2022-11-28T07:05:07.617Z,5.76
2022-11-28T07:06:07.605Z,5.79
2022-11-28T07:07:07.590Z,5.82
2022-11-28T07:08:07.675Z,5.83
2022-11-28T07:09:07.676Z,5.91
2022-11-28T07:10:07.563Z,5.90
2022-11-28T07:11:07.546Z,5.87
2022-11-28T07:12:07.526Z,5.82
2022-11-28T07:13:07.531Z,5.83
2022-11-28T07:14:07.507Z,5.76
2022-11-28T07:15:07.496Z,5.75
2022-11-28T07:16:07.501Z,5.75
2022-11-28T07:17:07.528Z,5.66
2022-11-28T07:18:07.465Z,5.69
2022-11-28T07:19:07.436Z,5.82
2022-11-28T07:20:07.438Z,5.82
2022-11-28T07:21:07.407Z,5.82
2022-11-28T07:22:07.404Z,5.80
2022-11-28T07:23:07.411Z,5.83
2022-11-28T07:24:07.388Z,5.84
2022-11-28T07:25:07.466Z,5.82
2022-11-28T07:26:07.355Z,5.75
2022-11-28T07:27:07.336Z,5.79
2022-11-28T07:28:07.342Z,5.83
2022-11-28T07:29:07.323Z,5.79
2022-11-28T07:30:07.296Z,5.79
2022-11-28T07:31:07.289Z,5.76
2022-11-28T07:32:07.319Z,5.80
2022-11-28T07:33:07.270Z,5.86
2022-11-28T07:34:07.247Z,5.83
2022-11-28T07:35:07.225Z,5.84
2022-11-28T07:36:07.218Z,5.83
2022-11-28T07:37:07.201Z,5.87
2022-11-28T07:38:07.187Z,5.91
2022-11-28T07:39:07.190Z,5.98
2022-11-28T07:40:07.166Z,5.99
2022-11-28T07:41:07.263Z,6.05
2022-11-28T07:42:07.156Z,6.07
2022-11-28T07:43:07.121Z,6.07
2022-11-28T07:44:07.137Z,6.04
2022-11-28T07:45:07.107Z,5.97
2022-11-28T07:46:07.172Z,5.89
2022-11-28T07:47:07.116Z,5.84
2022-11-28T07:48:07.065Z,5.89
2022-11-28T07:49:07.071Z,5.93
2022-11-28T07:50:07.040Z,5.97
2022-11-28T07:51:07.028Z,6.01
2022-11-28T07:52:07.006Z,6.04
2022-11-28T07:53:07.507Z,6.08
2022-11-28T07:54:06.998Z,6.09
2022-11-28T07:55:06.975Z,6.19
2022-11-28T07:56:06.959Z,6.26
2022-11-28T07:57:14.141Z,6.24
2022-11-28T07:58:07.935Z,6.24
2022-11-28T07:59:06.935Z,6.26
2022-11-28T08:00:06.912Z,6.28
2022-11-28T08:01:06.901Z,6.28
2022-11-28T08:02:06.931Z,6.27
2022-11-28T08:03:06.870Z,6.27
2022-11-28T08:04:06.965Z,6.19
2022-11-28T08:05:06.859Z,6.19
2022-11-28T08:06:06.833Z,6.19
2022-11-28T08:07:06.824Z,6.17
2022-11-28T08:08:06.904Z,6.16
2022-11-28T08:09:06.812Z,6.22
2022-11-28T08:10:06.780Z,6.19
2022-11-28T08:11:06.764Z,6.22
2022-11-28T08:12:06.774Z,6.20
2022-11-28T08:13:06.760Z,6.22
2022-11-28T08:14:06.745Z,6.27
2022-11-28T08:15:06.726Z,6.35
2022-11-28T08:16:06.919Z,6.38
2022-11-28T08:17:06.760Z,6.45
2022-11-28T08:18:06.675Z,6.33
2022-11-28T08:19:06.679Z,6.36
2022-11-28T08:20:06.651Z,6.42
2022-11-28T08:21:06.640Z,6.38
2022-11-28T08:22:06.636Z,6.41
2022-11-28T08:23:06.616Z,6.38
2022-11-28T08:24:06.612Z,6.41
2022-11-28T08:25:06.592Z,6.41
2022-11-28T08:26:06.575Z,6.46
2022-11-28T08:27:06.564Z,6.51
2022-11-28T08:28:06.550Z,6.46
2022-11-28T08:29:06.571Z,6.41
2022-11-28T08:30:06.526Z,6.44
2022-11-28T08:31:06.565Z,6.48
2022-11-28T08:32:06.495Z,6.48
2022-11-28T08:33:06.485Z,6.44
2022-11-28T08:34:06.491Z,6.45
2022-11-28T08:35:06.463Z,6.46
2022-11-28T08:36:06.447Z,6.49
2022-11-28T08:37:06.431Z,6.54
2022-11-28T08:38:06.419Z,6.52
2022-11-28T08:40:06.397Z,6.54
2022-11-28T08:41:06.397Z,6.57
2022-11-28T08:42:06.370Z,6.60
2022-11-28T08:43:06.358Z,6.64
2022-11-28T08:44:06.363Z,6.67
2022-11-28T08:45:06.369Z,6.75
2022-11-28T08:46:06.374Z,6.75
2022-11-28T08:47:06.312Z,6.75
2022-11-28T08:48:06.296Z,6.72
2022-11-28T08:49:06.315Z,6.77
2022-11-28T08:50:06.268Z,6.79
2022-11-28T08:51:06.264Z,6.82
2022-11-28T08:52:06.237Z,6.85
2022-11-28T08:53:07.883Z,6.97
2022-11-28T08:54:06.220Z,7.06
2022-11-28T08:55:06.228Z,7.17
2022-11-28T08:56:06.186Z,7.18
2022-11-28T08:57:06.181Z,7.18
2022-11-28T08:58:06.172Z,7.23
2022-11-28T08:59:06.167Z,7.21
2022-11-28T09:00:06.149Z,7.29
2022-11-28T09:01:06.230Z,7.29
2022-11-28T09:02:06.113Z,7.36
2022-11-28T09:03:06.102Z,7.33
2022-11-28T09:04:06.155Z,7.31
2022-11-28T09:05:06.087Z,7.25
2022-11-28T09:06:06.063Z,7.25
2022-11-28T09:07:06.047Z,7.32
2022-11-28T09:08:10.266Z,7.20
2022-11-28T09:09:06.026Z,7.00
2022-11-28T09:10:06.027Z,6.96
2022-11-28T09:11:05.995Z,6.89
2022-11-28T09:12:05.980Z,6.88
2022-11-28T09:13:05.976Z,6.97
2022-11-28T09:14:05.959Z,7.02
2022-11-28T09:15:05.962Z,7.00
2022-11-28T09:16:05.933Z,7.02
2022-11-28T09:17:06.057Z,7.10
2022-11-28T09:18:05.908Z,7.13
2022-11-28T09:19:05.910Z,7.17
2022-11-28T09:20:05.895Z,7.29
2022-11-28T09:21:05.870Z,7.05
2022-11-28T09:22:05.855Z,6.88
2022-11-28T09:23:05.854Z,6.77
2022-11-28T09:24:05.832Z,6.78
2022-11-28T09:25:05.831Z,6.87
2022-11-28T09:26:05.801Z,6.99
2022-11-28T09:27:05.788Z,7.07
2022-11-28T09:28:05.774Z,7.21
2022-11-28T09:29:05.765Z,7.21
2022-11-28T09:30:05.771Z,7.15
2022-11-28T09:31:05.791Z,7.11
2022-11-28T09:32:05.721Z,7.03
2022-11-28T09:33:05.728Z,7.07
2022-11-28T09:34:05.706Z,7.11
2022-11-28T09:35:05.702Z,7.15
2022-11-28T09:36:05.670Z,7.21
2022-11-28T09:37:05.663Z,7.18
2022-11-28T09:38:05.646Z,7.15
2022-11-28T09:39:05.635Z,7.20
2022-11-28T09:40:13.284Z,7.18
2022-11-28T09:41:06.608Z,7.24
2022-11-28T09:42:05.591Z,7.31
2022-11-28T09:43:05.580Z,7.38
2022-11-28T09:44:05.565Z,7.42
2022-11-28T09:45:05.576Z,7.32
2022-11-28T09:46:05.593Z,7.35
2022-11-28T09:47:05.530Z,7.39
2022-11-28T09:48:05.513Z,7.43
2022-11-28T09:49:05.520Z,7.50
2022-11-28T09:50:05.514Z,7.42
2022-11-28T09:51:05.476Z,7.40
2022-11-28T09:52:05.495Z,7.35
2022-11-28T09:53:05.453Z,7.39
2022-11-28T09:54:05.442Z,7.33
2022-11-28T09:55:05.446Z,7.35
2022-11-28T09:56:05.411Z,7.35
2022-11-28T09:57:05.400Z,7.38
2022-11-28T09:58:05.388Z,7.50
2022-11-28T09:59:05.373Z,7.51
2022-11-28T10:00:05.381Z,7.63
2022-11-28T10:01:05.347Z,7.53
2022-11-28T10:02:05.340Z,7.48
2022-11-28T10:03:05.468Z,7.54
2022-11-28T10:04:05.414Z,7.61
2022-11-28T10:05:05.476Z,7.66
2022-11-28T10:06:05.298Z,7.57
2022-11-28T10:07:05.271Z,7.51
2022-11-28T10:08:05.312Z,7.58
2022-11-28T10:09:05.248Z,7.75
2022-11-28T10:10:05.233Z,7.76
2022-11-28T10:11:05.236Z,7.83
2022-11-28T10:12:05.211Z,7.91
2022-11-28T10:13:05.189Z,8.03
2022-11-28T10:14:08.945Z,8.26
2022-11-28T10:15:05.176Z,8.30
2022-11-28T10:16:05.168Z,8.15
2022-11-28T10:17:05.237Z,7.97
2022-11-28T10:18:05.125Z,8.05
2022-11-28T10:19:05.128Z,8.06
2022-11-28T10:20:05.110Z,8.24
2022-11-28T10:21:05.138Z,8.41
2022-11-28T10:22:05.077Z,8.56
2022-11-28T10:23:05.070Z,8.46
2022-11-28T10:24:05.049Z,8.03
2022-11-28T10:25:05.041Z,7.87
2022-11-28T10:26:05.046Z,7.88
2022-11-28T10:27:05.015Z,8.00
2022-11-28T10:28:05.012Z,8.12
2022-11-28T10:29:05.001Z,8.28
2022-11-28T10:30:04.975Z,8.38
2022-11-28T10:31:05.069Z,8.42
2022-11-28T10:32:04.971Z,8.48
2022-11-28T10:33:04.937Z,8.38
2022-11-28T10:34:04.924Z,8.41
2022-11-28T10:35:04.911Z,8.36
2022-11-28T10:36:04.915Z,8.53
2022-11-28T10:37:04.912Z,8.60
2022-11-28T10:38:04.872Z,8.61
2022-11-28T10:39:09.834Z,8.67
2022-11-28T10:40:04.849Z,8.79
2022-11-28T10:41:04.852Z,8.76
2022-11-28T10:42:04.822Z,8.76
2022-11-28T10:43:04.809Z,8.78
2022-11-28T10:44:04.807Z,8.71
2022-11-28T10:45:04.806Z,8.82
2022-11-28T10:46:04.841Z,8.88
2022-11-28T10:47:04.762Z,9.00
2022-11-28T10:48:29.897Z,9.04
2022-11-28T10:49:05.735Z,9.06
2022-11-28T10:50:04.730Z,8.99
2022-11-28T10:51:04.776Z,8.99
2022-11-28T10:52:04.699Z,8.85
2022-11-28T10:53:04.718Z,8.70
2022-11-28T10:54:04.673Z,8.69
2022-11-28T10:55:04.655Z,8.66
2022-11-28T10:56:08.516Z,8.69
2022-11-28T10:57:04.635Z,8.76
2022-11-28T10:58:04.619Z,8.69
2022-11-28T10:59:04.616Z,8.69
2022-11-28T11:00:04.591Z,8.66
2022-11-28T11:01:04.673Z,8.69
2022-11-28T11:02:04.634Z,8.70
2022-11-28T11:03:04.567Z,8.79
2022-11-28T11:04:04.591Z,8.81
2022-11-28T11:05:04.622Z,8.78
2022-11-28T11:06:04.536Z,8.74
2022-11-28T11:07:12.631Z,8.79
2022-11-28T11:08:05.571Z,8.79
2022-11-28T11:09:04.499Z,8.91
2022-11-28T11:10:04.467Z,8.84
2022-11-28T11:11:04.489Z,8.85
2022-11-28T11:12:04.436Z,8.95
2022-11-28T11:13:04.424Z,8.87
2022-11-28T11:14:04.414Z,8.84
2022-11-28T11:15:04.406Z,8.84
2022-11-28T11:16:04.529Z,8.91
2022-11-28T11:17:04.391Z,8.97
2022-11-28T11:18:04.362Z,8.95
2022-11-28T11:19:04.347Z,9.06
2022-11-28T11:20:04.332Z,9.10
2022-11-28T11:21:04.319Z,8.94
2022-11-28T11:22:04.321Z,8.92
2022-11-28T11:23:04.292Z,8.91
2022-11-28T11:24:04.279Z,8.89
2022-11-28T11:25:04.343Z,8.87
2022-11-28T11:26:04.251Z,8.91
2022-11-28T11:27:04.257Z,8.92
2022-11-28T11:28:04.239Z,8.97
2022-11-28T11:29:04.213Z,9.00
2022-11-28T11:30:04.197Z,9.04
2022-11-28T11:31:04.289Z,9.00
2022-11-28T11:32:04.187Z,8.97
2022-11-28T11:33:04.174Z,8.97
2022-11-28T11:34:04.147Z,9.03
2022-11-28T11:35:04.142Z,9.00
2022-11-28T11:36:04.120Z,8.94
2022-11-28T11:37:04.126Z,8.84
2022-11-28T11:38:04.104Z,8.82
2022-11-28T11:39:04.082Z,8.82
2022-11-28T11:40:04.067Z,8.85
2022-11-28T11:41:04.082Z,8.82
2022-11-28T11:42:04.071Z,8.85
2022-11-28T11:43:04.051Z,8.88
2022-11-28T11:44:04.023Z,8.84
2022-11-28T11:45:04.016Z,8.87
2022-11-28T11:46:04.090Z,8.81
2022-11-28T11:47:03.992Z,8.82
2022-11-28T11:48:03.974Z,8.85
2022-11-28T11:49:03.963Z,8.81
2022-11-28T11:50:03.943Z,8.82
2022-11-28T11:51:03.930Z,8.88
2022-11-28T11:52:03.943Z,8.85
2022-11-28T11:53:03.912Z,8.88
2022-11-28T11:54:03.892Z,8.89
2022-11-28T11:55:03.883Z,8.91
2022-11-28T11:56:03.866Z,8.94
2022-11-28T11:57:31.274Z,8.89
2022-11-28T11:58:06.061Z,8.94
2022-11-28T11:59:03.825Z,8.95
2022-11-28T12:00:03.813Z,9.00
2022-11-28T12:01:03.802Z,9.02
2022-11-28T12:02:03.808Z,9.10
2022-11-28T12:03:03.943Z,9.18
2022-11-28T12:04:17.932Z,9.22
2022-11-28T12:05:03.834Z,9.11
2022-11-28T12:06:14.332Z,9.06
2022-11-28T12:07:04.767Z,9.16
2022-11-28T12:08:03.767Z,9.06
2022-11-28T12:09:03.702Z,9.00
2022-11-28T12:10:04.889Z,8.95
2022-11-28T12:11:03.675Z,8.94
2022-11-28T12:12:03.673Z,8.87
2022-11-28T12:13:03.666Z,8.94
2022-11-28T12:14:03.655Z,8.94
2022-11-28T12:15:03.620Z,9.00
2022-11-28T12:16:03.675Z,9.06
2022-11-28T12:17:19.496Z,9.13
2022-11-28T12:18:03.586Z,9.11
2022-11-28T12:19:03.586Z,9.16
2022-11-28T12:20:03.559Z,9.25
2022-11-28T12:21:03.578Z,9.32
2022-11-28T12:22:03.560Z,9.26
2022-11-28T12:23:03.520Z,9.18
2022-11-28T12:24:03.512Z,9.08
2022-11-28T12:25:03.495Z,9.10
2022-11-28T12:26:03.479Z,9.08
2022-11-28T12:27:03.464Z,9.04
2022-11-28T12:28:03.469Z,8.99
2022-11-28T12:29:03.468Z,8.94
2022-11-28T12:30:03.428Z,8.95
2022-11-28T12:31:03.433Z,8.95
2022-11-28T12:32:03.400Z,8.94
2022-11-28T12:33:03.403Z,8.94
2022-11-28T12:34:03.377Z,8.94
2022-11-28T12:35:03.360Z,8.95
2022-11-28T12:36:03.600Z,9.00
2022-11-28T12:37:03.336Z,9.08
2022-11-28T12:38:10.817Z,9.11
2022-11-28T12:39:03.310Z,9.13
2022-11-28T12:40:03.297Z,9.14
2022-11-28T12:41:03.291Z,9.06
2022-11-28T12:42:03.270Z,9.08
2022-11-28T12:43:03.272Z,9.08
2022-11-28T12:44:03.249Z,9.03
2022-11-28T12:45:03.255Z,8.99
2022-11-28T12:46:03.276Z,8.97
2022-11-28T12:47:03.202Z,8.99
2022-11-28T12:48:03.207Z,8.99
2022-11-28T12:49:03.181Z,8.92
2022-11-28T12:50:03.173Z,8.99
2022-11-28T12:51:03.154Z,8.94
2022-11-28T12:52:03.141Z,8.92
2022-11-28T12:53:03.153Z,8.94
2022-11-28T12:54:03.114Z,8.94
2022-11-28T12:55:03.097Z,8.94
2022-11-28T12:56:03.086Z,8.88
2022-11-28T12:57:03.072Z,8.94
2022-11-28T12:58:06.887Z,8.97
2022-11-28T12:59:03.051Z,8.97
2022-11-28T13:00:08.491Z,9.00
2022-11-28T13:01:03.045Z,9.00
2022-11-28T13:02:08.208Z,9.11
2022-11-28T13:03:03.056Z,9.04
2022-11-28T13:04:02.981Z,9.02
2022-11-28T13:05:02.974Z,8.95
2022-11-28T13:06:02.955Z,8.88
2022-11-28T13:07:02.947Z,8.87
2022-11-28T13:08:03.015Z,8.88
2022-11-28T13:09:02.947Z,8.82
2022-11-28T13:10:02.917Z,8.87
2022-11-28T13:11:02.902Z,8.88
2022-11-28T13:12:02.874Z,8.89
2022-11-28T13:13:02.879Z,8.99
2022-11-28T13:14:02.852Z,8.97
2022-11-28T13:15:02.844Z,8.97
2022-11-28T13:16:02.888Z,9.06
2022-11-28T13:17:02.827Z,9.08
2022-11-28T13:18:02.816Z,9.13
2022-11-28T13:19:02.785Z,9.13